sensor_id;sensor_type;location;lat;lon;timestamp;pressure;altitude;pressure_sealevel;temperature;humidity
59588;BME280;45412;54.472;18.464;2023-05-10T00:02:50;100380.33;;;9.88;41.37
59588;BME280;45412;54.472;18.464;2023-05-10T00:05:38;100377.40;;;9.84;41.62
59588;BME280;45412;54.472;18.464;2023-05-10T00:08:27;100377.42;;;9.81;41.63
59588;BME280;45412;54.472;18.464;2023-05-10T00:11:17;100378.90;;;9.78;41.80
59588;BME280;45412;54.472;18.464;2023-05-10T00:14:06;100373.98;;;9.72;41.89
59588;BME280;45412;54.472;18.464;2023-05-10T00:16:59;100376.13;;;9.67;42.17
59588;BME280;45412;54.472;18.464;2023-05-10T00:19:53;100377.73;;;9.64;42.01
59588;BME280;45412;54.472;18.464;2023-05-10T00:22:43;100378.09;;;9.61;42.40
59588;BME280;45412;54.472;18.464;2023-05-10T00:25:33;100379.91;;;9.58;42.35
59588;BME280;45412;54.472;18.464;2023-05-10T00:28:21;100377.33;;;9.57;42.41
59588;BME280;45412;54.472;18.464;2023-05-10T00:31:10;100382.09;;;9.57;42.27
59588;BME280;45412;54.472;18.464;2023-05-10T00:33:58;100381.57;;;9.57;42.47
59588;BME280;45412;54.472;18.464;2023-05-10T00:36:47;100377.44;;;9.55;42.59
59588;BME280;45412;54.472;18.464;2023-05-10T00:39:35;100376.15;;;9.53;42.33
59588;BME280;45412;54.472;18.464;2023-05-10T00:42:26;100374.22;;;9.50;42.58
59588;BME280;45412;54.472;18.464;2023-05-10T00:45:14;100371.42;;;9.47;42.73
59588;BME280;45412;54.472;18.464;2023-05-10T00:48:03;100372.11;;;9.45;42.62
59588;BME280;45412;54.472;18.464;2023-05-10T00:50:51;100362.84;;;9.43;42.90
59588;BME280;45412;54.472;18.464;2023-05-10T00:53:40;100370.53;;;9.42;42.63
59588;BME280;45412;54.472;18.464;2023-05-10T00:56:29;100370.36;;;9.42;42.64
59588;BME280;45412;54.472;18.464;2023-05-10T00:59:18;100359.29;;;9.36;42.86
59588;BME280;45412;54.472;18.464;2023-05-10T01:02:06;100362.55;;;9.37;42.99
59588;BME280;45412;54.472;18.464;2023-05-10T01:04:55;100359.49;;;9.32;43.10
59588;BME280;45412;54.472;18.464;2023-05-10T01:07:43;100357.55;;;9.30;43.06
59588;BME280;45412;54.472;18.464;2023-05-10T01:10:32;100354.41;;;9.27;43.21
59588;BME280;45412;54.472;18.464;2023-05-10T01:13:38;100356.33;;;9.22;43.36
59588;BME280;45412;54.472;18.464;2023-05-10T01:16:27;100355.54;;;9.20;43.23
59588;BME280;45412;54.472;18.464;2023-05-10T01:19:24;100353.41;;;9.20;43.42
59588;BME280;45412;54.472;18.464;2023-05-10T01:30:01;100351.80;;;9.12;43.45
59588;BME280;45412;54.472;18.464;2023-05-10T01:33:28;100346.89;;;9.09;43.75
59588;BME280;45412;54.472;18.464;2023-05-10T01:37:06;100342.14;;;9.06;43.61
59588;BME280;45412;54.472;18.464;2023-05-10T01:44:04;100338.82;;;8.97;43.75
59588;BME280;45412;54.472;18.464;2023-05-10T01:47:15;100337.35;;;8.98;43.70
59588;BME280;45412;54.472;18.464;2023-05-10T01:50:10;100333.30;;;8.95;43.62
59588;BME280;45412;54.472;18.464;2023-05-10T01:53:03;100335.65;;;8.95;43.66
59588;BME280;45412;54.472;18.464;2023-05-10T01:55:55;100339.48;;;8.93;43.72
59588;BME280;45412;54.472;18.464;2023-05-10T01:58:46;100337.23;;;8.90;43.81
59588;BME280;45412;54.472;18.464;2023-05-10T02:01:36;100333.70;;;8.86;44.20
59588;BME280;45412;54.472;18.464;2023-05-10T02:04:27;100336.95;;;8.82;44.20
59588;BME280;45412;54.472;18.464;2023-05-10T02:07:16;100337.77;;;8.78;44.13
59588;BME280;45412;54.472;18.464;2023-05-10T02:10:09;100334.34;;;8.74;44.64
59588;BME280;45412;54.472;18.464;2023-05-10T02:12:59;100337.58;;;8.71;44.54
59588;BME280;45412;54.472;18.464;2023-05-10T02:15:48;100338.05;;;8.66;44.79
59588;BME280;45412;54.472;18.464;2023-05-10T02:18:40;100332.56;;;8.61;44.93
59588;BME280;45412;54.472;18.464;2023-05-10T02:21:30;100335.17;;;8.56;45.17
59588;BME280;45412;54.472;18.464;2023-05-10T02:24:21;100334.73;;;8.49;45.37
59588;BME280;45412;54.472;18.464;2023-05-10T02:27:12;100335.55;;;8.44;45.46
59588;BME280;45412;54.472;18.464;2023-05-10T02:30:02;100334.90;;;8.40;45.55
59588;BME280;45412;54.472;18.464;2023-05-10T02:32:52;100330.18;;;8.37;45.65
59588;BME280;45412;54.472;18.464;2023-05-10T02:35:42;100332.61;;;8.34;45.85
59588;BME280;45412;54.472;18.464;2023-05-10T02:38:32;100329.55;;;8.30;45.90
59588;BME280;45412;54.472;18.464;2023-05-10T02:41:22;100329.58;;;8.27;46.07
59588;BME280;45412;54.472;18.464;2023-05-10T02:44:14;100329.08;;;8.23;46.16
59588;BME280;45412;54.472;18.464;2023-05-10T02:47:03;100328.23;;;8.20;46.37
59588;BME280;45412;54.472;18.464;2023-05-10T02:49:51;100330.38;;;8.17;46.36
59588;BME280;45412;54.472;18.464;2023-05-10T02:52:46;100331.17;;;8.15;46.42
59588;BME280;45412;54.472;18.464;2023-05-10T02:55:39;100331.25;;;8.14;46.38
59588;BME280;45412;54.472;18.464;2023-05-10T02:58:29;100338.08;;;8.12;46.53
59588;BME280;45412;54.472;18.464;2023-05-10T03:01:17;100335.73;;;8.10;46.74
59588;BME280;45412;54.472;18.464;2023-05-10T03:04:05;100334.83;;;8.08;46.79
59588;BME280;45412;54.472;18.464;2023-05-10T03:06:55;100335.60;;;8.04;46.88
59588;BME280;45412;54.472;18.464;2023-05-10T03:09:50;100335.20;;;7.99;47.02
59588;BME280;45412;54.472;18.464;2023-05-10T03:16:12;100336.27;;;7.90;47.47
59588;BME280;45412;54.472;18.464;2023-05-10T03:19:16;100335.59;;;7.87;47.60
59588;BME280;45412;54.472;18.464;2023-05-10T03:22:10;100334.85;;;7.85;47.76
59588;BME280;45412;54.472;18.464;2023-05-10T03:25:00;100339.51;;;7.83;47.91
59588;BME280;45412;54.472;18.464;2023-05-10T03:27:54;100336.89;;;7.83;47.80
59588;BME280;45412;54.472;18.464;2023-05-10T03:30:44;100337.54;;;7.81;48.00
59588;BME280;45412;54.472;18.464;2023-05-10T03:33:33;100337.78;;;7.80;48.08
59588;BME280;45412;54.472;18.464;2023-05-10T03:36:22;100337.16;;;7.78;48.21
59588;BME280;45412;54.472;18.464;2023-05-10T03:39:11;100336.33;;;7.78;48.36
59588;BME280;45412;54.472;18.464;2023-05-10T03:41:59;100336.70;;;7.77;48.31
59588;BME280;45412;54.472;18.464;2023-05-10T03:44:47;100333.45;;;7.78;48.23
59588;BME280;45412;54.472;18.464;2023-05-10T03:47:37;100338.83;;;7.80;48.32
59588;BME280;45412;54.472;18.464;2023-05-10T03:50:26;100342.83;;;7.81;48.09
59588;BME280;45412;54.472;18.464;2023-05-10T03:53:15;100341.77;;;7.84;48.09
59588;BME280;45412;54.472;18.464;2023-05-10T03:56:05;100337.58;;;7.86;47.85
59588;BME280;45412;54.472;18.464;2023-05-10T03:58:57;100336.81;;;7.90;47.84
59588;BME280;45412;54.472;18.464;2023-05-10T04:01:45;100334.96;;;7.94;47.61
59588;BME280;45412;54.472;18.464;2023-05-10T04:04:34;100336.79;;;7.99;47.43
59588;BME280;45412;54.472;18.464;2023-05-10T04:07:25;100337.31;;;8.05;47.21
59588;BME280;45412;54.472;18.464;2023-05-10T04:10:13;100332.73;;;8.10;47.06
59588;BME280;45412;54.472;18.464;2023-05-10T04:13:02;100332.81;;;8.14;46.87
59588;BME280;45412;54.472;18.464;2023-05-10T04:15:51;100333.73;;;8.20;46.50
59588;BME280;45412;54.472;18.464;2023-05-10T04:18:38;100331.52;;;8.26;46.23
59588;BME280;45412;54.472;18.464;2023-05-10T04:21:28;100334.68;;;8.32;46.11
59588;BME280;45412;54.472;18.464;2023-05-10T04:24:16;100333.36;;;8.40;45.52
59588;BME280;45412;54.472;18.464;2023-05-10T04:27:05;100327.54;;;8.48;45.54
59588;BME280;45412;54.472;18.464;2023-05-10T04:29:53;100327.21;;;8.56;45.41
59588;BME280;45412;54.472;18.464;2023-05-10T04:32:41;100333.34;;;8.62;45.02
59588;BME280;45412;54.472;18.464;2023-05-10T04:35:31;100330.68;;;8.70;44.62
59588;BME280;45412;54.472;18.464;2023-05-10T04:38:19;100328.95;;;8.78;44.57
59588;BME280;45412;54.472;18.464;2023-05-10T04:41:09;100326.71;;;8.85;44.78
59588;BME280;45412;54.472;18.464;2023-05-10T04:43:58;100328.20;;;8.92;44.43
59588;BME280;45412;54.472;18.464;2023-05-10T04:46:46;100326.95;;;9.00;44.16
59588;BME280;45412;54.472;18.464;2023-05-10T04:49:34;100330.37;;;9.08;44.10
59588;BME280;45412;54.472;18.464;2023-05-10T04:52:24;100326.66;;;9.15;43.94
59588;BME280;45412;54.472;18.464;2023-05-10T04:55:14;100331.44;;;9.23;43.60
59588;BME280;45412;54.472;18.464;2023-05-10T04:58:05;100331.46;;;9.31;43.47
59588;BME280;45412;54.472;18.464;2023-05-10T05:00:54;100329.92;;;9.40;43.07
59588;BME280;45412;54.472;18.464;2023-05-10T05:03:44;100331.27;;;9.54;42.97
59588;BME280;45412;54.472;18.464;2023-05-10T05:06:33;100329.53;;;9.74;42.64
59588;BME280;45412;54.472;18.464;2023-05-10T05:09:21;100326.59;;;10.26;41.91
59588;BME280;45412;54.472;18.464;2023-05-10T05:12:10;100319.94;;;11.49;39.72
59588;BME280;45412;54.472;18.464;2023-05-10T05:15:03;100314.11;;;12.98;36.91
59588;BME280;45412;54.472;18.464;2023-05-10T05:17:56;100308.83;;;14.38;34.98
59588;BME280;45412;54.472;18.464;2023-05-10T05:20:44;100308.97;;;15.57;32.25
59588;BME280;45412;54.472;18.464;2023-05-10T05:23:33;100311.20;;;16.53;30.46
59588;BME280;45412;54.472;18.464;2023-05-10T05:26:22;100303.94;;;17.30;29.31
59588;BME280;45412;54.472;18.464;2023-05-10T05:29:11;100306.46;;;17.99;28.22
59588;BME280;45412;54.472;18.464;2023-05-10T05:32:02;100307.05;;;18.60;27.08
59588;BME280;45412;54.472;18.464;2023-05-10T05:34:52;100296.49;;;19.24;26.54
59588;BME280;45412;54.472;18.464;2023-05-10T05:37:43;100299.64;;;19.80;25.49
59588;BME280;45412;54.472;18.464;2023-05-10T05:40:33;100294.48;;;20.38;24.60
59588;BME280;45412;54.472;18.464;2023-05-10T05:43:21;100290.61;;;20.53;24.20
59588;BME280;45412;54.472;18.464;2023-05-10T05:46:10;100292.73;;;20.96;24.01
59588;BME280;45412;54.472;18.464;2023-05-10T05:49:00;100295.34;;;21.63;22.98
59588;BME280;45412;54.472;18.464;2023-05-10T05:52:03;100291.34;;;22.30;22.62
59588;BME280;45412;54.472;18.464;2023-05-10T05:54:53;100286.96;;;23.15;21.72
59588;BME280;45412;54.472;18.464;2023-05-10T05:57:45;100287.60;;;23.51;21.01
59588;BME280;45412;54.472;18.464;2023-05-10T06:00:37;100286.05;;;23.50;20.48
59588;BME280;45412;54.472;18.464;2023-05-10T06:03:25;100281.73;;;23.82;20.30
59588;BME280;45412;54.472;18.464;2023-05-10T06:06:14;100283.40;;;24.24;20.06
59588;BME280;45412;54.472;18.464;2023-05-10T06:09:04;100285.44;;;24.09;19.56
59588;BME280;45412;54.472;18.464;2023-05-10T06:11:52;100288.94;;;24.05;19.58
59588;BME280;45412;54.472;18.464;2023-05-10T06:14:42;100268.70;;;23.90;19.71
59588;BME280;45412;54.472;18.464;2023-05-10T06:17:30;100281.84;;;24.11;19.55
59588;BME280;45412;54.472;18.464;2023-05-10T06:20:19;100281.30;;;24.39;19.31
59588;BME280;45412;54.472;18.464;2023-05-10T06:23:07;100289.78;;;24.47;19.10
59588;BME280;45412;54.472;18.464;2023-05-10T06:26:01;100289.20;;;24.47;19.11
59588;BME280;45412;54.472;18.464;2023-05-10T06:28:56;100282.69;;;24.23;19.02
59588;BME280;45412;54.472;18.464;2023-05-10T06:31:44;100290.60;;;24.04;19.19
59588;BME280;45412;54.472;18.464;2023-05-10T06:34:34;100289.23;;;23.94;19.27
59588;BME280;45412;54.472;18.464;2023-05-10T06:37:23;100283.14;;;24.23;19.38
59588;BME280;45412;54.472;18.464;2023-05-10T06:40:12;100283.45;;;24.68;18.67
59588;BME280;45412;54.472;18.464;2023-05-10T06:43:01;100282.19;;;25.40;18.58
59588;BME280;45412;54.472;18.464;2023-05-10T06:45:49;100284.94;;;25.82;17.92
59588;BME280;45412;54.472;18.464;2023-05-10T06:48:39;100282.14;;;26.06;17.48
59588;BME280;45412;54.472;18.464;2023-05-10T06:51:27;100281.41;;;26.56;17.20
59588;BME280;45412;54.472;18.464;2023-05-10T06:54:15;100276.11;;;27.00;17.22
59588;BME280;45412;54.472;18.464;2023-05-10T06:57:04;100279.09;;;27.01;16.69
59588;BME280;45412;54.472;18.464;2023-05-10T07:00:07;100271.02;;;27.44;16.86
59588;BME280;45412;54.472;18.464;2023-05-10T07:02:57;100276.95;;;27.76;16.57
59588;BME280;45412;54.472;18.464;2023-05-10T07:05:46;100276.09;;;27.85;16.17
59588;BME280;45412;54.472;18.464;2023-05-10T07:08:34;100279.45;;;27.89;16.08
59588;BME280;45412;54.472;18.464;2023-05-10T07:11:23;100278.35;;;27.89;16.17
59588;BME280;45412;54.472;18.464;2023-05-10T07:14:11;100276.36;;;27.88;15.93
59588;BME280;45412;54.472;18.464;2023-05-10T07:16:59;100284.85;;;27.19;16.35
59588;BME280;45412;54.472;18.464;2023-05-10T07:19:49;100282.86;;;26.89;16.50
59588;BME280;45412;54.472;18.464;2023-05-10T07:22:37;100276.39;;;26.90;16.87
59588;BME280;45412;54.472;18.464;2023-05-10T07:25:25;100277.72;;;26.45;17.07
59588;BME280;45412;54.472;18.464;2023-05-10T07:28:15;100279.38;;;26.44;17.23
59588;BME280;45412;54.472;18.464;2023-05-10T07:31:05;100271.89;;;26.74;17.18
59588;BME280;45412;54.472;18.464;2023-05-10T07:33:54;100279.36;;;26.58;16.86
59588;BME280;45412;54.472;18.464;2023-05-10T07:36:42;100275.31;;;26.63;17.17
59588;BME280;45412;54.472;18.464;2023-05-10T07:39:31;100278.48;;;26.65;17.02
59588;BME280;45412;54.472;18.464;2023-05-10T07:42:19;100277.58;;;26.34;17.25
59588;BME280;45412;54.472;18.464;2023-05-10T07:45:08;100264.14;;;26.42;17.33
59588;BME280;45412;54.472;18.464;2023-05-10T07:47:56;100267.23;;;26.37;17.45
59588;BME280;45412;54.472;18.464;2023-05-10T07:50:45;100263.78;;;26.19;17.23
59588;BME280;45412;54.472;18.464;2023-05-10T07:53:33;100265.66;;;26.11;17.17
59588;BME280;45412;54.472;18.464;2023-05-10T07:56:28;100266.30;;;26.28;17.29
59588;BME280;45412;54.472;18.464;2023-05-10T07:59:17;100269.69;;;26.49;16.91
59588;BME280;45412;54.472;18.464;2023-05-10T08:02:06;100270.41;;;26.53;16.99
59588;BME280;45412;54.472;18.464;2023-05-10T08:04:54;100273.05;;;26.77;16.59
59588;BME280;45412;54.472;18.464;2023-05-10T08:07:43;100269.13;;;26.66;16.59
59588;BME280;45412;54.472;18.464;2023-05-10T08:10:32;100270.08;;;26.60;16.93
59588;BME280;45412;54.472;18.464;2023-05-10T08:13:22;100274.89;;;25.88;16.66
59588;BME280;45412;54.472;18.464;2023-05-10T08:16:11;100272.98;;;25.91;16.97
59588;BME280;45412;54.472;18.464;2023-05-10T08:19:01;100259.96;;;25.93;16.78
59588;BME280;45412;54.472;18.464;2023-05-10T08:21:50;100255.08;;;25.73;16.87
59588;BME280;45412;54.472;18.464;2023-05-10T08:24:38;100264.89;;;25.31;16.68
59588;BME280;45412;54.472;18.464;2023-05-10T08:27:26;100246.48;;;25.20;16.99
59588;BME280;45412;54.472;18.464;2023-05-10T08:30:15;100243.84;;;25.91;16.89
59588;BME280;45412;54.472;18.464;2023-05-10T08:33:03;100247.29;;;26.44;16.43
59588;BME280;45412;54.472;18.464;2023-05-10T08:35:51;100246.32;;;26.47;16.26
59588;BME280;45412;54.472;18.464;2023-05-10T08:38:40;100251.13;;;25.40;16.76
59588;BME280;45412;54.472;18.464;2023-05-10T08:41:29;100251.55;;;25.32;17.01
59588;BME280;45412;54.472;18.464;2023-05-10T08:44:21;100251.61;;;25.07;17.17
59588;BME280;45412;54.472;18.464;2023-05-10T08:47:10;100239.04;;;25.33;17.15
59588;BME280;45412;54.472;18.464;2023-05-10T08:50:00;100236.77;;;25.55;17.31
59588;BME280;45412;54.472;18.464;2023-05-10T08:52:51;100237.16;;;26.47;16.69
59588;BME280;45412;54.472;18.464;2023-05-10T08:55:43;100234.58;;;26.99;16.20
59588;BME280;45412;54.472;18.464;2023-05-10T08:58:31;100238.58;;;26.34;16.42
59588;BME280;45412;54.472;18.464;2023-05-10T09:01:20;100228.88;;;26.85;16.53
59588;BME280;45412;54.472;18.464;2023-05-10T09:04:09;100240.48;;;26.52;16.24
59588;BME280;45412;54.472;18.464;2023-05-10T09:06:59;100227.34;;;26.83;16.53
59588;BME280;45412;54.472;18.464;2023-05-10T09:09:49;100218.64;;;27.01;16.04
59588;BME280;45412;54.472;18.464;2023-05-10T09:12:38;100245.39;;;26.20;16.40
59588;BME280;45412;54.472;18.464;2023-05-10T09:15:26;100226.83;;;25.68;16.53
59588;BME280;45412;54.472;18.464;2023-05-10T09:18:15;100224.77;;;25.58;16.71
59588;BME280;45412;54.472;18.464;2023-05-10T09:21:03;100232.39;;;25.62;16.86
59588;BME280;45412;54.472;18.464;2023-05-10T09:23:51;100213.48;;;25.73;16.72
59588;BME280;45412;54.472;18.464;2023-05-10T09:26:50;100214.68;;;25.90;16.72
59588;BME280;45412;54.472;18.464;2023-05-10T09:29:41;100225.70;;;26.14;16.25
59588;BME280;45412;54.472;18.464;2023-05-10T09:32:43;100217.05;;;25.74;16.18
59588;BME280;45412;54.472;18.464;2023-05-10T09:35:33;100226.52;;;25.72;16.16
59588;BME280;45412;54.472;18.464;2023-05-10T09:38:21;100213.00;;;25.41;16.29
59588;BME280;45412;54.472;18.464;2023-05-10T09:41:22;100212.94;;;25.58;16.14
59588;BME280;45412;54.472;18.464;2023-05-10T09:44:10;100224.45;;;25.79;16.13
59588;BME280;45412;54.472;18.464;2023-05-10T09:47:03;100234.09;;;25.53;16.17
59588;BME280;45412;54.472;18.464;2023-05-10T09:49:53;100241.55;;;25.17;16.59
59588;BME280;45412;54.472;18.464;2023-05-10T09:53:00;100225.64;;;25.02;16.82
59588;BME280;45412;54.472;18.464;2023-05-10T09:55:50;100220.65;;;24.63;16.84
59588;BME280;45412;54.472;18.464;2023-05-10T09:58:39;100214.22;;;24.69;16.81
59588;BME280;45412;54.472;18.464;2023-05-10T10:01:28;100208.23;;;24.76;16.44
59588;BME280;45412;54.472;18.464;2023-05-10T10:04:17;100204.17;;;24.91;16.40
59588;BME280;45412;54.472;18.464;2023-05-10T10:07:05;100210.88;;;24.52;16.86
59588;BME280;45412;54.472;18.464;2023-05-10T10:09:57;100204.56;;;24.67;17.08
59588;BME280;45412;54.472;18.464;2023-05-10T10:12:46;100199.83;;;25.55;16.78
59588;BME280;45412;54.472;18.464;2023-05-10T10:15:35;100206.83;;;26.01;16.34
59588;BME280;45412;54.472;18.464;2023-05-10T10:18:23;100196.66;;;25.72;16.26
59588;BME280;45412;54.472;18.464;2023-05-10T10:21:15;100200.66;;;25.90;16.16
59588;BME280;45412;54.472;18.464;2023-05-10T10:24:04;100196.41;;;25.56;16.38
59588;BME280;45412;54.472;18.464;2023-05-10T10:30:41;100182.59;;;25.03;16.78
59588;BME280;45412;54.472;18.464;2023-05-10T10:36:45;100191.39;;;25.28;16.44
59588;BME280;45412;54.472;18.464;2023-05-10T10:39:33;100176.44;;;25.02;16.65
59588;BME280;45412;54.472;18.464;2023-05-10T10:42:44;100170.27;;;25.52;16.69
59588;BME280;45412;54.472;18.464;2023-05-10T10:45:33;100167.27;;;25.64;16.34
59588;BME280;45412;54.472;18.464;2023-05-10T10:48:22;100171.61;;;26.07;16.12
59588;BME280;45412;54.472;18.464;2023-05-10T10:51:13;100163.04;;;26.42;15.87
59588;BME280;45412;54.472;18.464;2023-05-10T10:54:11;100158.08;;;26.75;15.45
59588;BME280;45412;54.472;18.464;2023-05-10T10:57:14;100153.14;;;26.56;15.29
59588;BME280;45412;54.472;18.464;2023-05-10T11:03:14;100160.21;;;27.02;14.82
59588;BME280;45412;54.472;18.464;2023-05-10T11:06:06;100159.17;;;26.70;14.75
59588;BME280;45412;54.472;18.464;2023-05-10T11:08:55;100162.59;;;26.47;14.99
59588;BME280;45412;54.472;18.464;2023-05-10T11:11:54;100149.41;;;26.05;15.48
59588;BME280;45412;54.472;18.464;2023-05-10T11:14:43;100144.48;;;26.25;15.63
59588;BME280;45412;54.472;18.464;2023-05-10T11:17:31;100131.95;;;25.44;16.16
59588;BME280;45412;54.472;18.464;2023-05-10T11:20:21;100143.27;;;25.20;16.18
59588;BME280;45412;54.472;18.464;2023-05-10T11:23:14;100135.66;;;24.82;16.57
59588;BME280;45412;54.472;18.464;2023-05-10T11:26:03;100148.60;;;24.41;16.85
59588;BME280;45412;54.472;18.464;2023-05-10T11:28:54;100153.49;;;23.53;17.44
59588;BME280;45412;54.472;18.464;2023-05-10T11:31:48;100151.58;;;22.74;18.04
59588;BME280;45412;54.472;18.464;2023-05-10T11:34:36;100148.66;;;22.38;18.62
59588;BME280;45412;54.472;18.464;2023-05-10T11:37:28;100140.59;;;22.09;18.94
59588;BME280;45412;54.472;18.464;2023-05-10T11:40:21;100153.30;;;21.42;19.90
59588;BME280;45412;54.472;18.464;2023-05-10T11:43:12;100150.58;;;21.38;19.98
59588;BME280;45412;54.472;18.464;2023-05-10T11:46:01;100148.17;;;20.92;20.00
59588;BME280;45412;54.472;18.464;2023-05-10T11:48:52;100132.20;;;20.47;20.86
59588;BME280;45412;54.472;18.464;2023-05-10T11:51:40;100149.52;;;20.27;21.49
59588;BME280;45412;54.472;18.464;2023-05-10T11:54:31;100151.20;;;19.83;21.72
59588;BME280;45412;54.472;18.464;2023-05-10T11:57:26;100160.23;;;19.38;21.98
59588;BME280;45412;54.472;18.464;2023-05-10T12:00:17;100147.68;;;18.99;22.43
59588;BME280;45412;54.472;18.464;2023-05-10T12:03:08;100138.61;;;18.97;23.01
59588;BME280;45412;54.472;18.464;2023-05-10T12:06:01;100143.45;;;18.99;23.30
59588;BME280;45412;54.472;18.464;2023-05-10T12:08:49;100141.14;;;19.03;23.24
59588;BME280;45412;54.472;18.464;2023-05-10T12:11:41;100142.16;;;18.99;22.95
59588;BME280;45412;54.472;18.464;2023-05-10T12:14:36;100139.58;;;18.83;22.75
59588;BME280;45412;54.472;18.464;2023-05-10T12:17:27;100144.04;;;18.62;23.16
59588;BME280;45412;54.472;18.464;2023-05-10T12:20:23;100136.23;;;18.48;23.78
59588;BME280;45412;54.472;18.464;2023-05-10T12:23:13;100136.70;;;18.44;24.18
59588;BME280;45412;54.472;18.464;2023-05-10T12:26:05;100122.49;;;18.49;24.36
59588;BME280;45412;54.472;18.464;2023-05-10T12:28:54;100130.84;;;18.50;24.41
59588;BME280;45412;54.472;18.464;2023-05-10T12:31:57;100123.88;;;18.53;24.47
59588;BME280;45412;54.472;18.464;2023-05-10T12:34:46;100143.98;;;18.36;24.53
59588;BME280;45412;54.472;18.464;2023-05-10T12:37:35;100142.06;;;18.28;24.42
59588;BME280;45412;54.472;18.464;2023-05-10T12:40:27;100138.23;;;18.18;24.34
59588;BME280;45412;54.472;18.464;2023-05-10T12:43:17;100128.80;;;18.34;24.35
59588;BME280;45412;54.472;18.464;2023-05-10T12:48:55;100147.38;;;18.30;23.76
59588;BME280;45412;54.472;18.464;2023-05-10T12:51:56;100136.70;;;18.24;24.00
59588;BME280;45412;54.472;18.464;2023-05-10T12:54:49;100122.06;;;18.22;24.25
59588;BME280;45412;54.472;18.464;2023-05-10T12:57:38;100115.30;;;18.36;24.68
59588;BME280;45412;54.472;18.464;2023-05-10T13:00:26;100135.94;;;18.56;24.64
59588;BME280;45412;54.472;18.464;2023-05-10T13:03:16;100125.75;;;18.57;23.37
59588;BME280;45412;54.472;18.464;2023-05-10T13:06:04;100133.04;;;18.51;23.46
59588;BME280;45412;54.472;18.464;2023-05-10T13:08:54;100120.10;;;18.48;24.10
59588;BME280;45412;54.472;18.464;2023-05-10T13:11:42;100120.41;;;18.47;24.01
59588;BME280;45412;54.472;18.464;2023-05-10T13:14:31;100115.40;;;18.40;24.18
59588;BME280;45412;54.472;18.464;2023-05-10T13:17:20;100127.08;;;18.48;23.86
59588;BME280;45412;54.472;18.464;2023-05-10T13:20:09;100113.05;;;18.48;23.39
59588;BME280;45412;54.472;18.464;2023-05-10T13:22:57;100120.48;;;18.41;23.68
59588;BME280;45412;54.472;18.464;2023-05-10T13:25:46;100113.71;;;18.36;23.95
59588;BME280;45412;54.472;18.464;2023-05-10T13:28:34;100116.65;;;18.36;23.87
59588;BME280;45412;54.472;18.464;2023-05-10T13:31:23;100112.66;;;18.42;24.02
59588;BME280;45412;54.472;18.464;2023-05-10T13:34:12;100100.53;;;18.51;24.27
59588;BME280;45412;54.472;18.464;2023-05-10T13:37:00;100104.00;;;18.50;23.63
59588;BME280;45412;54.472;18.464;2023-05-10T13:39:48;100120.34;;;18.44;23.71
59588;BME280;45412;54.472;18.464;2023-05-10T13:42:38;100105.77;;;18.39;23.91
59588;BME280;45412;54.472;18.464;2023-05-10T13:45:27;100109.67;;;18.36;23.92
59588;BME280;45412;54.472;18.464;2023-05-10T13:48:16;100103.88;;;18.38;23.97
59588;BME280;45412;54.472;18.464;2023-05-10T13:51:04;100098.04;;;18.52;23.85
59588;BME280;45412;54.472;18.464;2023-05-10T13:53:52;100102.08;;;18.61;23.63
59588;BME280;45412;54.472;18.464;2023-05-10T13:56:42;100097.59;;;18.63;23.53
59588;BME280;45412;54.472;18.464;2023-05-10T13:59:32;100090.98;;;18.67;23.48
59588;BME280;45412;54.472;18.464;2023-05-10T14:02:22;100091.02;;;18.73;23.63
59588;BME280;45412;54.472;18.464;2023-05-10T14:05:11;100081.08;;;18.91;23.72
59588;BME280;45412;54.472;18.464;2023-05-10T14:08:01;100101.96;;;18.92;23.62
59588;BME280;45412;54.472;18.464;2023-05-10T14:10:50;100080.02;;;18.87;23.70
59588;BME280;45412;54.472;18.464;2023-05-10T14:13:41;100082.36;;;18.77;23.89
59588;BME280;45412;54.472;18.464;2023-05-10T14:16:29;100082.43;;;18.73;24.02
59588;BME280;45412;54.472;18.464;2023-05-10T14:19:17;100089.48;;;18.66;24.04
59588;BME280;45412;54.472;18.464;2023-05-10T14:22:06;100082.86;;;18.63;24.05
59588;BME280;45412;54.472;18.464;2023-05-10T14:24:55;100070.52;;;18.67;24.29
59588;BME280;45412;54.472;18.464;2023-05-10T14:27:43;100066.12;;;18.73;24.20
59588;BME280;45412;54.472;18.464;2023-05-10T14:30:32;100074.93;;;18.81;23.98
59588;BME280;45412;54.472;18.464;2023-05-10T14:33:24;100073.34;;;18.84;24.05
59588;BME280;45412;54.472;18.464;2023-05-10T14:36:13;100064.52;;;18.86;23.85
59588;BME280;45412;54.472;18.464;2023-05-10T14:39:02;100058.90;;;18.91;23.91
59588;BME280;45412;54.472;18.464;2023-05-10T14:41:50;100070.73;;;18.85;23.85
59588;BME280;45412;54.472;18.464;2023-05-10T14:44:39;100066.14;;;18.71;23.98
59588;BME280;45412;54.472;18.464;2023-05-10T14:47:27;100056.44;;;18.68;24.01
59588;BME280;45412;54.472;18.464;2023-05-10T14:50:16;100061.47;;;18.76;24.01
59588;BME280;45412;54.472;18.464;2023-05-10T14:53:22;100064.87;;;18.81;24.07
59588;BME280;45412;54.472;18.464;2023-05-10T14:56:10;100071.55;;;18.79;23.79
59588;BME280;45412;54.472;18.464;2023-05-10T14:58:59;100057.89;;;18.71;23.89
59588;BME280;45412;54.472;18.464;2023-05-10T15:01:48;100066.87;;;18.69;23.87
59588;BME280;45412;54.472;18.464;2023-05-10T15:04:39;100067.16;;;18.67;23.75
59588;BME280;45412;54.472;18.464;2023-05-10T15:07:28;100062.20;;;18.77;23.74
59588;BME280;45412;54.472;18.464;2023-05-10T15:10:18;100058.20;;;18.76;23.18
59588;BME280;45412;54.472;18.464;2023-05-10T15:13:07;100048.43;;;18.67;23.41